sensor_id;sensor_type;location;lat;lon;timestamp;P1;durP1;ratioP1;P2;durP2;ratioP2
79076;SDS011;68477;42.698;23.342;2023-03-23T00:01:25;52.33;;;26.23;;
79076;SDS011;68477;42.698;23.342;2023-03-23T00:03:54;52.25;;;27.17;;
79076;SDS011;68477;42.698;23.342;2023-03-23T00:06:24;52.15;;;28.67;;
79076;SDS011;68477;42.698;23.342;2023-03-23T00:08:52;55.95;;;26.83;;
79076;SDS011;68477;42.698;23.342;2023-03-23T00:11:25;48.33;;;27.67;;
79076;SDS011;68477;42.698;23.342;2023-03-23T00:13:54;55.70;;;27.90;;
79076;SDS011;68477;42.698;23.342;2023-03-23T00:16:23;45.92;;;25.75;;
79076;SDS011;68477;42.698;23.342;2023-03-23T00:19:07;55.08;;;26.15;;
79076;SDS011;68477;42.698;23.342;2023-03-23T00:21:35;48.53;;;26.58;;
79076;SDS011;68477;42.698;23.342;2023-03-23T00:24:03;46.85;;;25.95;;
79076;SDS011;68477;42.698;23.342;2023-03-23T00:26:37;49.60;;;26.90;;
79076;SDS011;68477;42.698;23.342;2023-03-23T00:29:08;46.65;;;26.05;;
79076;SDS011;68477;42.698;23.342;2023-03-23T00:31:48;46.90;;;25.10;;
79076;SDS011;68477;42.698;23.342;2023-03-23T00:34:15;50.78;;;26.17;;
79076;SDS011;68477;42.698;23.342;2023-03-23T00:36:44;49.33;;;24.25;;
79076;SDS011;68477;42.698;23.342;2023-03-23T00:39:10;49.65;;;25.00;;
79076;SDS011;68477;42.698;23.342;2023-03-23T00:41:36;59.03;;;27.65;;
79076;SDS011;68477;42.698;23.342;2023-03-23T00:44:03;57.88;;;27.40;;
79076;SDS011;68477;42.698;23.342;2023-03-23T00:46:28;54.03;;;28.35;;
79076;SDS011;68477;42.698;23.342;2023-03-23T00:48:54;50.58;;;27.10;;
79076;SDS011;68477;42.698;23.342;2023-03-23T00:51:21;52.17;;;26.83;;
79076;SDS011;68477;42.698;23.342;2023-03-23T00:53:48;53.97;;;29.85;;
79076;SDS011;68477;42.698;23.342;2023-03-23T00:56:14;56.03;;;29.88;;
79076;SDS011;68477;42.698;23.342;2023-03-23T00:58:39;52.50;;;29.00;;
79076;SDS011;68477;42.698;23.342;2023-03-23T01:01:05;51.92;;;28.75;;
79076;SDS011;68477;42.698;23.342;2023-03-23T01:03:31;53.30;;;29.40;;
79076;SDS011;68477;42.698;23.342;2023-03-23T01:05:57;56.08;;;29.15;;
79076;SDS011;68477;42.698;23.342;2023-03-23T01:08:23;52.55;;;28.92;;
79076;SDS011;68477;42.698;23.342;2023-03-23T01:10:49;51.92;;;27.95;;
79076;SDS011;68477;42.698;23.342;2023-03-23T01:13:15;51.25;;;28.15;;
79076;SDS011;68477;42.698;23.342;2023-03-23T01:15:41;50.78;;;27.77;;
79076;SDS011;68477;42.698;23.342;2023-03-23T01:18:07;54.55;;;28.30;;
79076;SDS011;68477;42.698;23.342;2023-03-23T01:20:35;52.20;;;27.23;;
79076;SDS011;68477;42.698;23.342;2023-03-23T01:23:01;48.22;;;25.85;;
79076;SDS011;68477;42.698;23.342;2023-03-23T01:25:28;48.60;;;25.30;;
79076;SDS011;68477;42.698;23.342;2023-03-23T01:27:56;50.80;;;25.88;;
79076;SDS011;68477;42.698;23.342;2023-03-23T01:30:22;52.78;;;26.50;;
79076;SDS011;68477;42.698;23.342;2023-03-23T01:32:48;46.45;;;24.38;;
79076;SDS011;68477;42.698;23.342;2023-03-23T01:35:14;56.22;;;25.48;;
79076;SDS011;68477;42.698;23.342;2023-03-23T01:37:40;53.47;;;23.67;;
79076;SDS011;68477;42.698;23.342;2023-03-23T01:40:07;51.05;;;25.45;;
79076;SDS011;68477;42.698;23.342;2023-03-23T01:42:34;48.10;;;24.77;;
79076;SDS011;68477;42.698;23.342;2023-03-23T01:47:46;51.15;;;26.52;;
79076;SDS011;68477;42.698;23.342;2023-03-23T01:50:12;48.80;;;24.60;;
79076;SDS011;68477;42.698;23.342;2023-03-23T01:52:38;54.67;;;25.33;;
79076;SDS011;68477;42.698;23.342;2023-03-23T01:55:04;51.35;;;24.33;;
79076;SDS011;68477;42.698;23.342;2023-03-23T01:57:30;55.30;;;25.20;;
79076;SDS011;68477;42.698;23.342;2023-03-23T01:59:57;49.83;;;26.98;;
79076;SDS011;68477;42.698;23.342;2023-03-23T02:02:36;48.45;;;24.65;;
79076;SDS011;68477;42.698;23.342;2023-03-23T02:05:04;53.22;;;25.63;;
79076;SDS011;68477;42.698;23.342;2023-03-23T02:07:35;59.38;;;26.90;;
79076;SDS011;68477;42.698;23.342;2023-03-23T02:10:01;48.15;;;24.80;;
79076;SDS011;68477;42.698;23.342;2023-03-23T02:12:27;47.95;;;24.77;;
79076;SDS011;68477;42.698;23.342;2023-03-23T02:14:53;56.85;;;25.13;;
79076;SDS011;68477;42.698;23.342;2023-03-23T02:23:03;51.92;;;25.52;;
79076;SDS011;68477;42.698;23.342;2023-03-23T02:39:26;44.83;;;24.10;;
79076;SDS011;68477;42.698;23.342;2023-03-23T02:41:56;42.50;;;22.70;;
79076;SDS011;68477;42.698;23.342;2023-03-23T02:44:26;44.03;;;21.98;;
79076;SDS011;68477;42.698;23.342;2023-03-23T02:49:22;39.60;;;19.95;;
79076;SDS011;68477;42.698;23.342;2023-03-23T02:51:50;39.47;;;22.77;;
79076;SDS011;68477;42.698;23.342;2023-03-23T02:54:17;34.22;;;16.77;;
79076;SDS011;68477;42.698;23.342;2023-03-23T02:56:45;26.85;;;14.40;;
79076;SDS011;68477;42.698;23.342;2023-03-23T02:59:12;25.00;;;13.88;;
79076;SDS011;68477;42.698;23.342;2023-03-23T03:04:16;20.90;;;12.43;;
79076;SDS011;68477;42.698;23.342;2023-03-23T03:07:06;20.17;;;12.82;;
79076;SDS011;68477;42.698;23.342;2023-03-23T03:10:00;24.48;;;13.15;;
79076;SDS011;68477;42.698;23.342;2023-03-23T03:12:55;26.60;;;13.60;;
79076;SDS011;68477;42.698;23.342;2023-03-23T03:18:00;23.77;;;12.77;;
79076;SDS011;68477;42.698;23.342;2023-03-23T03:20:32;21.50;;;11.32;;
79076;SDS011;68477;42.698;23.342;2023-03-23T03:23:03;24.30;;;13.15;;
79076;SDS011;68477;42.698;23.342;2023-03-23T03:25:32;23.50;;;12.68;;
79076;SDS011;68477;42.698;23.342;2023-03-23T03:27:58;22.80;;;11.52;;
79076;SDS011;68477;42.698;23.342;2023-03-23T03:30:26;22.80;;;12.02;;
79076;SDS011;68477;42.698;23.342;2023-03-23T03:32:56;22.27;;;12.43;;
79076;SDS011;68477;42.698;23.342;2023-03-23T03:35:25;24.08;;;12.23;;
79076;SDS011;68477;42.698;23.342;2023-03-23T03:37:51;24.70;;;12.35;;
79076;SDS011;68477;42.698;23.342;2023-03-23T03:40:18;23.20;;;11.23;;
79076;SDS011;68477;42.698;23.342;2023-03-23T03:42:46;21.90;;;12.30;;
79076;SDS011;68477;42.698;23.342;2023-03-23T03:45:13;20.17;;;10.52;;
79076;SDS011;68477;42.698;23.342;2023-03-23T03:47:42;17.70;;;10.32;;
79076;SDS011;68477;42.698;23.342;2023-03-23T03:50:07;17.88;;;9.82;;
79076;SDS011;68477;42.698;23.342;2023-03-23T03:52:34;22.13;;;12.40;;
79076;SDS011;68477;42.698;23.342;2023-03-23T03:55:00;21.70;;;10.68;;
79076;SDS011;68477;42.698;23.342;2023-03-23T03:57:25;23.45;;;11.00;;
79076;SDS011;68477;42.698;23.342;2023-03-23T03:59:51;22.00;;;11.57;;
79076;SDS011;68477;42.698;23.342;2023-03-23T04:02:17;18.90;;;11.52;;
79076;SDS011;68477;42.698;23.342;2023-03-23T04:04:47;20.38;;;10.93;;
79076;SDS011;68477;42.698;23.342;2023-03-23T04:07:14;20.33;;;11.23;;
79076;SDS011;68477;42.698;23.342;2023-03-23T04:09:41;21.33;;;10.60;;
79076;SDS011;68477;42.698;23.342;2023-03-23T04:12:14;22.58;;;12.15;;
79076;SDS011;68477;42.698;23.342;2023-03-23T04:14:40;20.75;;;10.65;;
79076;SDS011;68477;42.698;23.342;2023-03-23T04:17:06;19.08;;;10.68;;
79076;SDS011;68477;42.698;23.342;2023-03-23T04:19:34;18.40;;;10.55;;
79076;SDS011;68477;42.698;23.342;2023-03-23T04:22:01;18.27;;;10.90;;
79076;SDS011;68477;42.698;23.342;2023-03-23T04:24:27;19.08;;;10.68;;
79076;SDS011;68477;42.698;23.342;2023-03-23T04:26:56;20.40;;;10.25;;
79076;SDS011;68477;42.698;23.342;2023-03-23T04:29:21;20.20;;;10.95;;
79076;SDS011;68477;42.698;23.342;2023-03-23T04:31:47;20.27;;;10.90;;
79076;SDS011;68477;42.698;23.342;2023-03-23T04:34:15;18.65;;;10.65;;
79076;SDS011;68477;42.698;23.342;2023-03-23T04:36:41;21.63;;;11.35;;
79076;SDS011;68477;42.698;23.342;2023-03-23T04:39:07;20.15;;;12.02;;
79076;SDS011;68477;42.698;23.342;2023-03-23T04:41:38;24.65;;;12.02;;
79076;SDS011;68477;42.698;23.342;2023-03-23T04:44:05;26.70;;;12.48;;
79076;SDS011;68477;42.698;23.342;2023-03-23T04:46:32;22.25;;;12.70;;
79076;SDS011;68477;42.698;23.342;2023-03-23T04:48:58;24.92;;;12.98;;
79076;SDS011;68477;42.698;23.342;2023-03-23T04:51:27;23.00;;;12.40;;
79076;SDS011;68477;42.698;23.342;2023-03-23T04:53:53;20.90;;;12.13;;
79076;SDS011;68477;42.698;23.342;2023-03-23T04:56:19;23.58;;;13.60;;
79076;SDS011;68477;42.698;23.342;2023-03-23T04:58:46;23.13;;;13.25;;
79076;SDS011;68477;42.698;23.342;2023-03-23T05:01:11;20.58;;;13.02;;
79076;SDS011;68477;42.698;23.342;2023-03-23T05:03:42;23.80;;;13.30;;
79076;SDS011;68477;42.698;23.342;2023-03-23T05:06:08;21.52;;;12.68;;
79076;SDS011;68477;42.698;23.342;2023-03-23T05:08:34;23.77;;;13.40;;
79076;SDS011;68477;42.698;23.342;2023-03-23T05:11:03;23.60;;;13.82;;
79076;SDS011;68477;42.698;23.342;2023-03-23T05:13:30;25.73;;;13.88;;
79076;SDS011;68477;42.698;23.342;2023-03-23T05:15:56;25.35;;;13.52;;
79076;SDS011;68477;42.698;23.342;2023-03-23T05:18:22;25.00;;;12.98;;
79076;SDS011;68477;42.698;23.342;2023-03-23T05:20:47;23.73;;;13.73;;
79076;SDS011;68477;42.698;23.342;2023-03-23T05:23:14;29.52;;;13.30;;
79076;SDS011;68477;42.698;23.342;2023-03-23T05:25:40;29.02;;;14.70;;
79076;SDS011;68477;42.698;23.342;2023-03-23T05:28:08;27.63;;;15.40;;
79076;SDS011;68477;42.698;23.342;2023-03-23T05:30:35;30.23;;;13.98;;
79076;SDS011;68477;42.698;23.342;2023-03-23T05:33:03;28.35;;;16.08;;
79076;SDS011;68477;42.698;23.342;2023-03-23T05:35:29;30.85;;;16.58;;
79076;SDS011;68477;42.698;23.342;2023-03-23T05:37:55;32.33;;;17.55;;
79076;SDS011;68477;42.698;23.342;2023-03-23T05:40:22;37.00;;;18.13;;
79076;SDS011;68477;42.698;23.342;2023-03-23T05:42:49;27.52;;;15.82;;
79076;SDS011;68477;42.698;23.342;2023-03-23T05:45:15;37.80;;;18.13;;
79076;SDS011;68477;42.698;23.342;2023-03-23T05:47:41;39.67;;;20.98;;
79076;SDS011;68477;42.698;23.342;2023-03-23T05:50:07;38.85;;;19.92;;
79076;SDS011;68477;42.698;23.342;2023-03-23T05:52:34;32.60;;;17.85;;
79076;SDS011;68477;42.698;23.342;2023-03-23T05:55:03;35.03;;;18.77;;
79076;SDS011;68477;42.698;23.342;2023-03-23T05:57:29;41.78;;;20.65;;
79076;SDS011;68477;42.698;23.342;2023-03-23T05:59:55;36.80;;;21.55;;
79076;SDS011;68477;42.698;23.342;2023-03-23T06:02:22;37.78;;;19.55;;
79076;SDS011;68477;42.698;23.342;2023-03-23T06:04:49;37.10;;;18.45;;
79076;SDS011;68477;42.698;23.342;2023-03-23T06:07:15;32.67;;;18.17;;
79076;SDS011;68477;42.698;23.342;2023-03-23T06:09:40;42.85;;;20.67;;
79076;SDS011;68477;42.698;23.342;2023-03-23T06:12:07;39.05;;;18.80;;
79076;SDS011;68477;42.698;23.342;2023-03-23T06:14:34;40.53;;;19.08;;
79076;SDS011;68477;42.698;23.342;2023-03-23T06:17:00;39.25;;;19.20;;
79076;SDS011;68477;42.698;23.342;2023-03-23T06:19:26;34.65;;;19.05;;
79076;SDS011;68477;42.698;23.342;2023-03-23T06:21:52;35.63;;;18.70;;
79076;SDS011;68477;42.698;23.342;2023-03-23T06:24:19;35.97;;;18.98;;
79076;SDS011;68477;42.698;23.342;2023-03-23T06:26:46;37.33;;;19.85;;
79076;SDS011;68477;42.698;23.342;2023-03-23T06:29:12;35.50;;;19.27;;
79076;SDS011;68477;42.698;23.342;2023-03-23T06:31:42;38.15;;;18.85;;
79076;SDS011;68477;42.698;23.342;2023-03-23T06:34:12;32.50;;;18.08;;
79076;SDS011;68477;42.698;23.342;2023-03-23T06:36:38;30.42;;;16.33;;
79076;SDS011;68477;42.698;23.342;2023-03-23T06:39:04;33.28;;;19.15;;
79076;SDS011;68477;42.698;23.342;2023-03-23T06:41:30;38.13;;;18.80;;
79076;SDS011;68477;42.698;23.342;2023-03-23T06:43:56;40.10;;;19.33;;
79076;SDS011;68477;42.698;23.342;2023-03-23T06:46:24;38.60;;;20.10;;
79076;SDS011;68477;42.698;23.342;2023-03-23T06:48:49;39.20;;;19.50;;
79076;SDS011;68477;42.698;23.342;2023-03-23T06:51:15;33.78;;;18.98;;
79076;SDS011;68477;42.698;23.342;2023-03-23T06:53:42;33.83;;;19.00;;
79076;SDS011;68477;42.698;23.342;2023-03-23T06:56:07;37.92;;;19.80;;
79076;SDS011;68477;42.698;23.342;2023-03-23T06:58:33;38.60;;;19.75;;
79076;SDS011;68477;42.698;23.342;2023-03-23T07:00:58;32.97;;;17.85;;
79076;SDS011;68477;42.698;23.342;2023-03-23T07:03:24;33.55;;;16.23;;
79076;SDS011;68477;42.698;23.342;2023-03-23T07:05:51;33.60;;;18.35;;
79076;SDS011;68477;42.698;23.342;2023-03-23T07:08:17;31.48;;;17.98;;
79076;SDS011;68477;42.698;23.342;2023-03-23T07:10:42;31.67;;;16.55;;
79076;SDS011;68477;42.698;23.342;2023-03-23T07:13:08;33.92;;;17.70;;
79076;SDS011;68477;42.698;23.342;2023-03-23T07:15:35;32.95;;;17.45;;
79076;SDS011;68477;42.698;23.342;2023-03-23T07:18:00;31.55;;;17.20;;
79076;SDS011;68477;42.698;23.342;2023-03-23T07:20:26;34.85;;;16.75;;
79076;SDS011;68477;42.698;23.342;2023-03-23T07:22:53;32.00;;;17.13;;
79076;SDS011;68477;42.698;23.342;2023-03-23T07:25:18;30.48;;;17.05;;
79076;SDS011;68477;42.698;23.342;2023-03-23T07:27:44;35.97;;;16.70;;
79076;SDS011;68477;42.698;23.342;2023-03-23T07:30:13;31.55;;;15.90;;
79076;SDS011;68477;42.698;23.342;2023-03-23T07:32:39;28.48;;;15.98;;
79076;SDS011;68477;42.698;23.342;2023-03-23T07:35:05;31.95;;;16.38;;
79076;SDS011;68477;42.698;23.342;2023-03-23T07:37:32;25.98;;;15.30;;
79076;SDS011;68477;42.698;23.342;2023-03-23T07:39:57;27.05;;;15.73;;
79076;SDS011;68477;42.698;23.342;2023-03-23T07:42:23;33.45;;;19.75;;
79076;SDS011;68477;42.698;23.342;2023-03-23T07:44:48;35.63;;;18.80;;
79076;SDS011;68477;42.698;23.342;2023-03-23T07:47:14;28.95;;;17.20;;
79076;SDS011;68477;42.698;23.342;2023-03-23T07:49:40;33.65;;;17.70;;
79076;SDS011;68477;42.698;23.342;2023-03-23T07:52:05;32.97;;;17.83;;
79076;SDS011;68477;42.698;23.342;2023-03-23T07:54:31;32.00;;;17.30;;
79076;SDS011;68477;42.698;23.342;2023-03-23T07:56:56;32.67;;;17.10;;
79076;SDS011;68477;42.698;23.342;2023-03-23T07:59:22;34.67;;;18.42;;
79076;SDS011;68477;42.698;23.342;2023-03-23T08:01:47;33.10;;;18.10;;
79076;SDS011;68477;42.698;23.342;2023-03-23T08:04:13;37.97;;;19.92;;
79076;SDS011;68477;42.698;23.342;2023-03-23T08:06:40;41.90;;;21.25;;
79076;SDS011;68477;42.698;23.342;2023-03-23T08:09:05;34.78;;;18.60;;
79076;SDS011;68477;42.698;23.342;2023-03-23T08:11:36;35.10;;;19.65;;
79076;SDS011;68477;42.698;23.342;2023-03-23T08:14:02;38.80;;;18.73;;
79076;SDS011;68477;42.698;23.342;2023-03-23T08:16:29;32.85;;;19.05;;
79076;SDS011;68477;42.698;23.342;2023-03-23T08:18:54;34.58;;;18.95;;
79076;SDS011;68477;42.698;23.342;2023-03-23T08:21:20;37.17;;;19.63;;
79076;SDS011;68477;42.698;23.342;2023-03-23T08:23:47;36.67;;;18.95;;
79076;SDS011;68477;42.698;23.342;2023-03-23T08:26:12;30.65;;;16.65;;
79076;SDS011;68477;42.698;23.342;2023-03-23T08:28:39;32.45;;;16.27;;
79076;SDS011;68477;42.698;23.342;2023-03-23T08:31:05;33.45;;;16.35;;
79076;SDS011;68477;42.698;23.342;2023-03-23T08:33:32;35.58;;;17.00;;
79076;SDS011;68477;42.698;23.342;2023-03-23T08:35:58;40.75;;;14.98;;
79076;SDS011;68477;42.698;23.342;2023-03-23T08:38:26;26.38;;;13.25;;
79076;SDS011;68477;42.698;23.342;2023-03-23T08:40:56;26.15;;;14.57;;
79076;SDS011;68477;42.698;23.342;2023-03-23T08:43:26;23.35;;;13.23;;
79076;SDS011;68477;42.698;23.342;2023-03-23T08:45:52;22.20;;;12.43;;
79076;SDS011;68477;42.698;23.342;2023-03-23T08:48:18;24.13;;;12.90;;
79076;SDS011;68477;42.698;23.342;2023-03-23T08:50:44;27.60;;;14.88;;
79076;SDS011;68477;42.698;23.342;2023-03-23T08:53:10;20.77;;;11.43;;
79076;SDS011;68477;42.698;23.342;2023-03-23T08:55:36;28.17;;;12.68;;
79076;SDS011;68477;42.698;23.342;2023-03-23T08:58:01;13.02;;;8.20;;
79076;SDS011;68477;42.698;23.342;2023-03-23T09:00:28;14.60;;;9.68;;
79076;SDS011;68477;42.698;23.342;2023-03-23T09:02:54;21.88;;;12.27;;
79076;SDS011;68477;42.698;23.342;2023-03-23T09:05:22;22.35;;;11.63;;
79076;SDS011;68477;42.698;23.342;2023-03-23T09:07:51;23.73;;;12.77;;
79076;SDS011;68477;42.698;23.342;2023-03-23T09:10:18;17.63;;;8.55;;
79076;SDS011;68477;42.698;23.342;2023-03-23T09:12:44;13.25;;;7.15;;
79076;SDS011;68477;42.698;23.342;2023-03-23T09:15:12;10.82;;;7.05;;
79076;SDS011;68477;42.698;23.342;2023-03-23T09:17:45;14.00;;;8.68;;
79076;SDS011;68477;42.698;23.342;2023-03-23T09:20:12;9.23;;;6.18;;
79076;SDS011;68477;42.698;23.342;2023-03-23T09:25:07;11.23;;;6.22;;
79076;SDS011;68477;42.698;23.342;2023-03-23T09:27:34;13.70;;;6.88;;
79076;SDS011;68477;42.698;23.342;2023-03-23T09:30:02;15.10;;;7.03;;
79076;SDS011;68477;42.698;23.342;2023-03-23T09:32:31;8.95;;;5.82;;
79076;SDS011;68477;42.698;23.342;2023-03-23T09:34:58;12.50;;;5.30;;
79076;SDS011;68477;42.698;23.342;2023-03-23T09:37:23;8.32;;;5.95;;
79076;SDS011;68477;42.698;23.342;2023-03-23T09:39:49;9.60;;;5.95;;
79076;SDS011;68477;42.698;23.342;2023-03-23T09:52:56;9.77;;;5.57;;
79076;SDS011;68477;42.698;23.342;2023-03-23T09:55:30;9.15;;;5.63;;
79076;SDS011;68477;42.698;23.342;2023-03-23T09:57:59;10.13;;;5.75;;
79076;SDS011;68477;42.698;23.342;2023-03-23T10:00:30;7.38;;;5.13;;
79076;SDS011;68477;42.698;23.342;2023-03-23T10:05:51;8.90;;;5.72;;
79076;SDS011;68477;42.698;23.342;2023-03-23T10:16:33;10.13;;;6.35;;
79076;SDS011;68477;42.698;23.342;2023-03-23T10:19:23;10.15;;;6.68;;
79076;SDS011;68477;42.698;23.342;2023-03-23T10:22:03;10.73;;;6.93;;
79076;SDS011;68477;42.698;23.342;2023-03-23T10:25:35;9.98;;;6.25;;
79076;SDS011;68477;42.698;23.342;2023-03-23T10:27:38;11.38;;;6.85;;
79076;SDS011;68477;42.698;23.342;2023-03-23T10:38:38;10.90;;;7.00;;
79076;SDS011;68477;42.698;23.342;2023-03-23T10:41:13;10.52;;;6.38;;
79076;SDS011;68477;42.698;23.342;2023-03-23T10:43:41;11.60;;;7.00;;
79076;SDS011;68477;42.698;23.342;2023-03-23T10:48:54;12.63;;;7.03;;
79076;SDS011;68477;42.698;23.342;2023-03-23T10:51:27;10.95;;;6.43;;
79076;SDS011;68477;42.698;23.342;2023-03-23T10:54:00;10.88;;;6.65;;
79076;SDS011;68477;42.698;23.342;2023-03-23T10:56:41;9.85;;;5.80;;
79076;SDS011;68477;42.698;23.342;2023-03-23T10:59:25;10.93;;;5.93;;
79076;SDS011;68477;42.698;23.342;2023-03-23T11:01:54;8.63;;;5.63;;
79076;SDS011;68477;42.698;23.342;2023-03-23T11:04:23;12.57;;;6.85;;
79076;SDS011;68477;42.698;23.342;2023-03-23T11:06:50;10.20;;;6.57;;
79076;SDS011;68477;42.698;23.342;2023-03-23T11:09:21;9.15;;;6.13;;
79076;SDS011;68477;42.698;23.342;2023-03-23T11:11:59;9.25;;;6.38;;
79076;SDS011;68477;42.698;23.342;2023-03-23T11:14:26;9.63;;;5.85;;
79076;SDS011;68477;42.698;23.342;2023-03-23T11:16:58;7.40;;;5.18;;
79076;SDS011;68477;42.698;23.342;2023-03-23T11:19:33;9.45;;;5.70;;
79076;SDS011;68477;42.698;23.342;2023-03-23T11:24:33;10.18;;;6.60;;
79076;SDS011;68477;42.698;23.342;2023-03-23T11:27:01;9.95;;;6.75;;
79076;SDS011;68477;42.698;23.342;2023-03-23T11:29:31;8.52;;;6.28;;
79076;SDS011;68477;42.698;23.342;2023-03-23T11:34:25;10.95;;;6.72;;
79076;SDS011;68477;42.698;23.342;2023-03-23T11:37:00;11.57;;;6.85;;
79076;SDS011;68477;42.698;23.342;2023-03-23T11:39:28;10.35;;;6.05;;
79076;SDS011;68477;42.698;23.342;2023-03-23T11:41:57;9.25;;;5.80;;
79076;SDS011;68477;42.698;23.342;2023-03-23T11:44:39;9.10;;;6.20;;
79076;SDS011;68477;42.698;23.342;2023-03-23T11:47:27;8.32;;;5.47;;
79076;SDS011;68477;42.698;23.342;2023-03-23T11:52:43;8.30;;;6.35;;
79076;SDS011;68477;42.698;23.342;2023-03-23T11:55:15;8.15;;;5.00;;
79076;SDS011;68477;42.698;23.342;2023-03-23T11:57:47;12.60;;;6.07;;
79076;SDS011;68477;42.698;23.342;2023-03-23T12:00:17;8.43;;;5.90;;
79076;SDS011;68477;42.698;23.342;2023-03-23T12:02:56;11.20;;;5.88;;
79076;SDS011;68477;42.698;23.342;2023-03-23T12:11:37;9.95;;;4.93;;
79076;SDS011;68477;42.698;23.342;2023-03-23T12:16:55;7.85;;;5.97;;
79076;SDS011;68477;42.698;23.342;2023-03-23T12:28:13;9.88;;;5.82;;
79076;SDS011;68477;42.698;23.342;2023-03-23T12:51:42;7.40;;;5.05;;
79076;SDS011;68477;42.698;23.342;2023-03-23T12:54:13;8.68;;;4.82;;
79076;SDS011;68477;42.698;23.342;2023-03-23T12:57:08;10.45;;;5.05;;
79076;SDS011;68477;42.698;23.342;2023-03-23T12:59:54;7.60;;;5.03;;
79076;SDS011;68477;42.698;23.342;2023-03-23T13:02:35;7.35;;;5.40;;
79076;SDS011;68477;42.698;23.342;2023-03-23T13:05:06;7.05;;;4.78;;
79076;SDS011;68477;42.698;23.342;2023-03-23T13:10:49;6.63;;;5.00;;
79076;SDS011;68477;42.698;23.342;2023-03-23T13:13:18;9.68;;;5.07;;
79076;SDS011;68477;42.698;23.342;2023-03-23T13:16:07;9.00;;;5.50;;
79076;SDS011;68477;42.698;23.342;2023-03-23T13:21:30;9.52;;;6.38;;
79076;SDS011;68477;42.698;23.342;2023-03-23T13:24:05;9.75;;;5.32;;
79076;SDS011;68477;42.698;23.342;2023-03-23T13:26:37;7.93;;;5.43;;
79076;SDS011;68477;42.698;23.342;2023-03-23T13:29:14;8.65;;;5.22;;
79076;SDS011;68477;42.698;23.342;2023-03-23T13:31:49;8.23;;;5.57;;
79076;SDS011;68477;42.698;23.342;2023-03-23T13:34:26;8.80;;;5.40;;
79076;SDS011;68477;42.698;23.342;2023-03-23T13:37:04;9.63;;;5.22;;
79076;SDS011;68477;42.698;23.342;2023-03-23T13:42:56;10.77;;;4.88;;
79076;SDS011;68477;42.698;23.342;2023-03-23T13:45:51;10.77;;;5.38;;
79076;SDS011;68477;42.698;23.342;2023-03-23T13:48:22;7.72;;;5.43;;
79076;SDS011;68477;42.698;23.342;2023-03-23T13:57:23;8.38;;;5.60;;
79076;SDS011;68477;42.698;23.342;2023-03-23T13:59:58;10.38;;;5.47;;
79076;SDS011;68477;42.698;23.342;2023-03-23T14:02:39;10.30;;;5.70;;
79076;SDS011;68477;42.698;23.342;2023-03-23T14:05:11;9.95;;;5.30;;
79076;SDS011;68477;42.698;23.342;2023-03-23T14:08:02;7.47;;;5.05;;
79076;SDS011;68477;42.698;23.342;2023-03-23T14:10:38;7.95;;;4.78;;
79076;SDS011;68477;42.698;23.342;2023-03-23T14:16:31;8.07;;;5.32;;
79076;SDS011;68477;42.698;23.342;2023-03-23T14:19:01;8.52;;;5.30;;
79076;SDS011;68477;42.698;23.342;2023-03-23T14:24:09;8.68;;;4.88;;
79076;SDS011;68477;42.698;23.342;2023-03-23T14:26:37;7.70;;;5.50;;
79076;SDS011;68477;42.698;23.342;2023-03-23T14:29:11;8.45;;;5.80;;
79076;SDS011;68477;42.698;23.342;2023-03-23T14:34:31;9.23;;;5.50;;
79076;SDS011;68477;42.698;23.342;2023-03-23T14:37:01;11.88;;;5.90;;
79076;SDS011;68477;42.698;23.342;2023-03-23T14:39:38;9.77;;;5.35;;
79076;SDS011;68477;42.698;23.342;2023-03-23T14:42:14;8.85;;;5.10;;
79076;SDS011;68477;42.698;23.342;2023-03-23T14:44:43;9.00;;;5.40;;
79076;SDS011;68477;42.698;23.342;2023-03-23T14:47:21;8.00;;;5.13;;
79076;SDS011;68477;42.698;23.342;2023-03-23T14:49:55;8.35;;;5.05;;
79076;SDS011;68477;42.698;23.342;2023-03-23T14:52:23;7.10;;;4.85;;
79076;SDS011;68477;42.698;23.342;2023-03-23T14:54:50;8.27;;;4.95;;
79076;SDS011;68477;42.698;23.342;2023-03-23T14:57:20;7.63;;;5.30;;
79076;SDS011;68477;42.698;23.342;2023-03-23T14:59:54;8.52;;;5.78;;
79076;SDS011;68477;42.698;23.342;2023-03-23T15:02:23;9.60;;;5.43;;
79076;SDS011;68477;42.698;23.342;2023-03-23T15:12:04;9.45;;;5.28;;
79076;SDS011;68477;42.698;23.342;2023-03-23T15:15:05;7.93;;;5.22;;
79076;SDS011;68477;42.698;23.342;2023-03-23T15:17:47;9.68;;;5.28;;
79076;SDS011;68477;42.698;23.342;2023-03-23T15:22:52;8.25;;;5.43;;
79076;SDS011;68477;42.698;23.342;2023-03-23T15:27:53;9.23;;;5.47;;
79076;SDS011;68477;42.698;23.342;2023-03-23T15:32:51;9.93;;;5.90;;
79076;SDS011;68477;42.698;23.342;2023-03-23T15:35:25;10.27;;;5.47;;
79076;SDS011;68477;42.698;23.342;2023-03-23T15:37:58;9.30;;;5.40;;
79076;SDS011;68477;42.698;23.342;2023-03-23T15:40:25;9.10;;;5.00;;
79076;SDS011;68477;42.698;23.342;2023-03-23T15:43:05;11.68;;;5.53;;
79076;SDS011;68477;42.698;23.342;2023-03-23T15:48:48;8.05;;;5.18;;
79076;SDS011;68477;42.698;23.342;2023-03-23T15:51:19;9.45;;;6.25;;
79076;SDS011;68477;42.698;23.342;2023-03-23T15:53:46;14.27;;;5.38;;
79076;SDS011;68477;42.698;23.342;2023-03-23T15:56:14;10.73;;;6.28;;
79076;SDS011;68477;42.698;23.342;2023-03-23T15:58:40;11.88;;;5.45;;
79076;SDS011;68477;42.698;23.342;2023-03-23T16:01:12;11.32;;;5.35;;
79076;SDS011;68477;42.698;23.342;2023-03-23T16:03:45;10.77;;;5.70;;
79076;SDS011;68477;42.698;23.342;2023-03-23T16:06:14;9.95;;;5.65;;
79076;SDS011;68477;42.698;23.342;2023-03-23T16:08:41;9.05;;;5.07;;
79076;SDS011;68477;42.698;23.342;2023-03-23T16:11:08;9.13;;;5.40;;
79076;SDS011;68477;42.698;23.342;2023-03-23T16:13:36;9.85;;;5.15;;
79076;SDS011;68477;42.698;23.342;2023-03-23T16:16:03;8.90;;;5.03;;
79076;SDS011;68477;42.698;23.342;2023-03-23T16:18:30;8.20;;;5.65;;
79076;SDS011;68477;42.698;23.342;2023-03-23T16:20:55;16.85;;;5.82;;
79076;SDS011;68477;42.698;23.342;2023-03-23T16:23:21;10.13;;;5.38;;
79076;SDS011;68477;42.698;23.342;2023-03-23T16:25:47;8.73;;;4.75;;
79076;SDS011;68477;42.698;23.342;2023-03-23T16:28:13;12.02;;;5.80;;
79076;SDS011;68477;42.698;23.342;2023-03-23T16:30:39;8.65;;;5.00;;
79076;SDS011;68477;42.698;23.342;2023-03-23T16:33:07;10.70;;;5.47;;
79076;SDS011;68477;42.698;23.342;2023-03-23T16:35:34;9.68;;;6.03;;
79076;SDS011;68477;42.698;23.342;2023-03-23T16:38:00;13.93;;;6.50;;
79076;SDS011;68477;42.698;23.342;2023-03-23T16:40:25;11.60;;;5.95;;
79076;SDS011;68477;42.698;23.342;2023-03-23T16:42:52;11.23;;;6.07;;
79076;SDS011;68477;42.698;23.342;2023-03-23T16:45:18;11.38;;;6.15;;
79076;SDS011;68477;42.698;23.342;2023-03-23T16:47:44;10.05;;;5.78;;
79076;SDS011;68477;42.698;23.342;2023-03-23T16:50:10;12.60;;;6.22;;
79076;SDS011;68477;42.698;23.342;2023-03-23T16:52:39;12.05;;;6.70;;
79076;SDS011;68477;42.698;23.342;2023-03-23T16:55:06;11.45;;;6.18;;
79076;SDS011;68477;42.698;23.342;2023-03-23T16:57:32;10.90;;;5.93;;
79076;SDS011;68477;42.698;23.342;2023-03-23T17:00:02;17.13;;;6.72;;
79076;SDS011;68477;42.698;23.342;2023-03-23T17:02:30;12.05;;;7.72;;